sensor_id;sensor_type;location;lat;lon;timestamp;P1;durP1;ratioP1;P2;durP2;ratioP2
30519;SDS011;17300;50.374;8.006;2023-12-20T00:00:37;0.50;;;0.30;;
30519;SDS011;17300;50.374;8.006;2023-12-20T00:03:04;0.20;;;0.20;;
30519;SDS011;17300;50.374;8.006;2023-12-20T00:05:30;0.23;;;0.23;;
30519;SDS011;17300;50.374;8.006;2023-12-20T00:07:58;0.17;;;0.17;;
30519;SDS011;17300;50.374;8.006;2023-12-20T00:10:25;0.30;;;0.30;;
30519;SDS011;17300;50.374;8.006;2023-12-20T00:12:51;0.30;;;0.30;;
30519;SDS011;17300;50.374;8.006;2023-12-20T00:15:18;0.23;;;0.20;;
30519;SDS011;17300;50.374;8.006;2023-12-20T00:17:46;0.47;;;0.30;;
30519;SDS011;17300;50.374;8.006;2023-12-20T00:20:13;0.27;;;0.27;;
30519;SDS011;17300;50.374;8.006;2023-12-20T00:22:39;0.30;;;0.20;;
30519;SDS011;17300;50.374;8.006;2023-12-20T00:25:07;1.07;;;0.30;;
30519;SDS011;17300;50.374;8.006;2023-12-20T00:27:34;0.20;;;0.20;;
30519;SDS011;17300;50.374;8.006;2023-12-20T00:30:01;0.43;;;0.20;;
30519;SDS011;17300;50.374;8.006;2023-12-20T00:32:27;0.47;;;0.40;;
30519;SDS011;17300;50.374;8.006;2023-12-20T00:34:55;0.50;;;0.30;;
30519;SDS011;17300;50.374;8.006;2023-12-20T00:37:22;0.57;;;0.33;;
30519;SDS011;17300;50.374;8.006;2023-12-20T00:39:49;0.63;;;0.30;;
30519;SDS011;17300;50.374;8.006;2023-12-20T00:42:15;0.20;;;0.20;;
30519;SDS011;17300;50.374;8.006;2023-12-20T00:44:42;0.20;;;0.20;;
30519;SDS011;17300;50.374;8.006;2023-12-20T00:47:08;0.40;;;0.40;;
30519;SDS011;17300;50.374;8.006;2023-12-20T00:49:35;0.63;;;0.33;;
30519;SDS011;17300;50.374;8.006;2023-12-20T00:52:03;0.30;;;0.30;;
30519;SDS011;17300;50.374;8.006;2023-12-20T00:54:31;0.23;;;0.23;;
30519;SDS011;17300;50.374;8.006;2023-12-20T00:56:57;0.23;;;0.23;;
30519;SDS011;17300;50.374;8.006;2023-12-20T00:59:24;0.53;;;0.40;;
30519;SDS011;17300;50.374;8.006;2023-12-20T01:01:51;0.20;;;0.20;;
30519;SDS011;17300;50.374;8.006;2023-12-20T01:04:18;0.30;;;0.30;;
30519;SDS011;17300;50.374;8.006;2023-12-20T01:06:44;0.30;;;0.30;;
30519;SDS011;17300;50.374;8.006;2023-12-20T01:09:12;0.47;;;0.30;;
30519;SDS011;17300;50.374;8.006;2023-12-20T01:11:39;0.40;;;0.40;;
30519;SDS011;17300;50.374;8.006;2023-12-20T01:14:06;0.30;;;0.23;;
30519;SDS011;17300;50.374;8.006;2023-12-20T01:16:32;0.40;;;0.40;;
30519;SDS011;17300;50.374;8.006;2023-12-20T01:18:59;0.20;;;0.20;;
30519;SDS011;17300;50.374;8.006;2023-12-20T01:21:26;0.30;;;0.30;;
30519;SDS011;17300;50.374;8.006;2023-12-20T01:23:51;0.20;;;0.20;;
30519;SDS011;17300;50.374;8.006;2023-12-20T01:26:20;0.30;;;0.30;;
30519;SDS011;17300;50.374;8.006;2023-12-20T01:28:46;0.33;;;0.33;;
30519;SDS011;17300;50.374;8.006;2023-12-20T01:31:13;0.37;;;0.37;;
30519;SDS011;17300;50.374;8.006;2023-12-20T01:33:40;0.50;;;0.40;;
30519;SDS011;17300;50.374;8.006;2023-12-20T01:36:06;0.70;;;0.40;;
30519;SDS011;17300;50.374;8.006;2023-12-20T01:38:33;0.40;;;0.40;;
30519;SDS011;17300;50.374;8.006;2023-12-20T01:40:59;1.20;;;0.40;;
30519;SDS011;17300;50.374;8.006;2023-12-20T01:43:27;0.30;;;0.30;;
30519;SDS011;17300;50.374;8.006;2023-12-20T01:45:55;0.37;;;0.37;;
30519;SDS011;17300;50.374;8.006;2023-12-20T01:48:22;0.20;;;0.20;;
30519;SDS011;17300;50.374;8.006;2023-12-20T01:50:50;0.30;;;0.30;;
30519;SDS011;17300;50.374;8.006;2023-12-20T01:53:18;0.40;;;0.40;;
30519;SDS011;17300;50.374;8.006;2023-12-20T01:55:47;0.30;;;0.30;;
30519;SDS011;17300;50.374;8.006;2023-12-20T01:58:16;0.30;;;0.30;;
30519;SDS011;17300;50.374;8.006;2023-12-20T02:00:45;0.40;;;0.40;;
30519;SDS011;17300;50.374;8.006;2023-12-20T02:03:12;0.40;;;0.40;;
30519;SDS011;17300;50.374;8.006;2023-12-20T02:05:38;0.57;;;0.40;;
30519;SDS011;17300;50.374;8.006;2023-12-20T02:08:06;0.20;;;0.20;;
30519;SDS011;17300;50.374;8.006;2023-12-20T02:10:32;0.40;;;0.40;;
30519;SDS011;17300;50.374;8.006;2023-12-20T02:13:00;0.30;;;0.30;;
30519;SDS011;17300;50.374;8.006;2023-12-20T02:15:26;0.50;;;0.40;;
30519;SDS011;17300;50.374;8.006;2023-12-20T02:17:54;0.30;;;0.30;;
30519;SDS011;17300;50.374;8.006;2023-12-20T02:20:21;0.30;;;0.30;;
30519;SDS011;17300;50.374;8.006;2023-12-20T02:22:49;0.30;;;0.30;;
30519;SDS011;17300;50.374;8.006;2023-12-20T02:25:16;0.30;;;0.30;;
30519;SDS011;17300;50.374;8.006;2023-12-20T02:27:43;0.30;;;0.30;;
30519;SDS011;17300;50.374;8.006;2023-12-20T02:30:10;0.30;;;0.30;;
30519;SDS011;17300;50.374;8.006;2023-12-20T02:32:37;0.53;;;0.30;;
30519;SDS011;17300;50.374;8.006;2023-12-20T02:35:04;0.37;;;0.37;;
30519;SDS011;17300;50.374;8.006;2023-12-20T02:37:32;0.30;;;0.30;;
30519;SDS011;17300;50.374;8.006;2023-12-20T02:40:00;0.37;;;0.37;;
30519;SDS011;17300;50.374;8.006;2023-12-20T02:42:28;0.37;;;0.37;;
30519;SDS011;17300;50.374;8.006;2023-12-20T02:44:54;0.30;;;0.30;;
30519;SDS011;17300;50.374;8.006;2023-12-20T02:47:21;0.60;;;0.60;;
30519;SDS011;17300;50.374;8.006;2023-12-20T02:49:47;0.40;;;0.40;;
30519;SDS011;17300;50.374;8.006;2023-12-20T02:52:14;0.30;;;0.30;;
30519;SDS011;17300;50.374;8.006;2023-12-20T02:54:41;0.40;;;0.40;;
30519;SDS011;17300;50.374;8.006;2023-12-20T02:57:09;0.73;;;0.43;;
30519;SDS011;17300;50.374;8.006;2023-12-20T02:59:36;0.40;;;0.40;;
30519;SDS011;17300;50.374;8.006;2023-12-20T03:02:03;0.93;;;0.40;;
30519;SDS011;17300;50.374;8.006;2023-12-20T03:04:29;0.40;;;0.40;;
30519;SDS011;17300;50.374;8.006;2023-12-20T03:06:56;0.40;;;0.40;;
30519;SDS011;17300;50.374;8.006;2023-12-20T03:09:23;0.50;;;0.50;;
30519;SDS011;17300;50.374;8.006;2023-12-20T03:11:49;0.40;;;0.40;;
30519;SDS011;17300;50.374;8.006;2023-12-20T03:14:17;0.50;;;0.30;;
30519;SDS011;17300;50.374;8.006;2023-12-20T03:16:46;0.40;;;0.40;;
30519;SDS011;17300;50.374;8.006;2023-12-20T03:19:13;0.30;;;0.30;;
30519;SDS011;17300;50.374;8.006;2023-12-20T03:21:40;0.30;;;0.30;;
30519;SDS011;17300;50.374;8.006;2023-12-20T03:24:06;0.20;;;0.20;;
30519;SDS011;17300;50.374;8.006;2023-12-20T03:26:33;0.30;;;0.30;;
30519;SDS011;17300;50.374;8.006;2023-12-20T03:29:00;0.40;;;0.30;;
30519;SDS011;17300;50.374;8.006;2023-12-20T03:31:27;0.20;;;0.20;;
30519;SDS011;17300;50.374;8.006;2023-12-20T03:33:54;0.97;;;0.30;;
30519;SDS011;17300;50.374;8.006;2023-12-20T03:36:21;0.30;;;0.30;;
30519;SDS011;17300;50.374;8.006;2023-12-20T03:38:47;0.23;;;0.20;;
30519;SDS011;17300;50.374;8.006;2023-12-20T03:41:14;0.50;;;0.33;;
30519;SDS011;17300;50.374;8.006;2023-12-20T03:43:41;0.93;;;0.30;;
30519;SDS011;17300;50.374;8.006;2023-12-20T03:46:07;0.30;;;0.30;;
30519;SDS011;17300;50.374;8.006;2023-12-20T03:48:35;0.30;;;0.30;;
30519;SDS011;17300;50.374;8.006;2023-12-20T03:51:02;0.30;;;0.30;;
30519;SDS011;17300;50.374;8.006;2023-12-20T03:53:29;0.30;;;0.30;;
30519;SDS011;17300;50.374;8.006;2023-12-20T03:55:55;0.40;;;0.40;;
30519;SDS011;17300;50.374;8.006;2023-12-20T03:58:22;0.40;;;0.40;;
30519;SDS011;17300;50.374;8.006;2023-12-20T04:00:48;0.43;;;0.43;;
30519;SDS011;17300;50.374;8.006;2023-12-20T04:03:15;0.47;;;0.47;;
30519;SDS011;17300;50.374;8.006;2023-12-20T04:05:43;0.70;;;0.63;;
30519;SDS011;17300;50.374;8.006;2023-12-20T04:08:10;0.90;;;0.70;;
30519;SDS011;17300;50.374;8.006;2023-12-20T04:10:37;0.90;;;0.80;;
30519;SDS011;17300;50.374;8.006;2023-12-20T04:13:04;0.80;;;0.80;;
30519;SDS011;17300;50.374;8.006;2023-12-20T04:15:31;2.63;;;1.10;;
30519;SDS011;17300;50.374;8.006;2023-12-20T04:17:57;2.53;;;1.20;;
30519;SDS011;17300;50.374;8.006;2023-12-20T04:20:24;3.50;;;1.37;;
30519;SDS011;17300;50.374;8.006;2023-12-20T04:22:52;1.30;;;1.20;;
30519;SDS011;17300;50.374;8.006;2023-12-20T04:25:18;3.37;;;1.10;;
30519;SDS011;17300;50.374;8.006;2023-12-20T04:27:45;1.83;;;1.10;;
30519;SDS011;17300;50.374;8.006;2023-12-20T04:30:12;3.03;;;1.33;;
30519;SDS011;17300;50.374;8.006;2023-12-20T04:32:39;1.73;;;1.10;;
30519;SDS011;17300;50.374;8.006;2023-12-20T04:35:06;1.63;;;1.10;;
30519;SDS011;17300;50.374;8.006;2023-12-20T04:37:33;2.27;;;1.10;;
30519;SDS011;17300;50.374;8.006;2023-12-20T04:40:01;2.07;;;1.03;;
30519;SDS011;17300;50.374;8.006;2023-12-20T04:42:30;2.20;;;1.20;;
30519;SDS011;17300;50.374;8.006;2023-12-20T04:44:57;1.87;;;1.00;;
30519;SDS011;17300;50.374;8.006;2023-12-20T04:47:23;3.03;;;1.17;;
30519;SDS011;17300;50.374;8.006;2023-12-20T04:49:50;1.67;;;1.00;;
30519;SDS011;17300;50.374;8.006;2023-12-20T04:52:16;1.97;;;1.13;;
30519;SDS011;17300;50.374;8.006;2023-12-20T04:54:43;3.73;;;1.37;;
30519;SDS011;17300;50.374;8.006;2023-12-20T04:57:11;2.23;;;0.90;;
30519;SDS011;17300;50.374;8.006;2023-12-20T04:59:38;2.93;;;1.00;;
30519;SDS011;17300;50.374;8.006;2023-12-20T05:02:04;2.90;;;1.10;;
30519;SDS011;17300;50.374;8.006;2023-12-20T05:04:31;1.93;;;0.93;;
30519;SDS011;17300;50.374;8.006;2023-12-20T05:06:58;2.33;;;1.40;;
30519;SDS011;17300;50.374;8.006;2023-12-20T05:09:24;3.43;;;1.73;;
30519;SDS011;17300;50.374;8.006;2023-12-20T05:11:51;3.13;;;2.00;;
30519;SDS011;17300;50.374;8.006;2023-12-20T05:14:19;1.77;;;1.40;;
30519;SDS011;17300;50.374;8.006;2023-12-20T05:16:45;2.60;;;1.33;;
30519;SDS011;17300;50.374;8.006;2023-12-20T05:19:12;3.27;;;1.70;;
30519;SDS011;17300;50.374;8.006;2023-12-20T05:21:39;3.50;;;1.63;;
30519;SDS011;17300;50.374;8.006;2023-12-20T05:24:05;2.33;;;1.23;;
30519;SDS011;17300;50.374;8.006;2023-12-20T05:26:32;1.23;;;1.10;;
30519;SDS011;17300;50.374;8.006;2023-12-20T05:28:59;2.20;;;1.10;;
30519;SDS011;17300;50.374;8.006;2023-12-20T05:31:27;3.63;;;1.03;;
30519;SDS011;17300;50.374;8.006;2023-12-20T05:33:54;2.17;;;1.10;;
30519;SDS011;17300;50.374;8.006;2023-12-20T05:36:20;2.13;;;1.00;;
30519;SDS011;17300;50.374;8.006;2023-12-20T05:38:47;2.80;;;1.20;;
30519;SDS011;17300;50.374;8.006;2023-12-20T05:41:14;2.73;;;1.20;;
30519;SDS011;17300;50.374;8.006;2023-12-20T05:43:40;2.63;;;1.10;;
30519;SDS011;17300;50.374;8.006;2023-12-20T05:46:07;2.67;;;1.33;;
30519;SDS011;17300;50.374;8.006;2023-12-20T05:48:37;3.00;;;1.17;;
30519;SDS011;17300;50.374;8.006;2023-12-20T05:51:07;3.43;;;1.30;;
30519;SDS011;17300;50.374;8.006;2023-12-20T05:53:33;2.57;;;1.00;;
30519;SDS011;17300;50.374;8.006;2023-12-20T05:56:00;1.27;;;1.00;;
30519;SDS011;17300;50.374;8.006;2023-12-20T05:58:27;1.90;;;1.10;;
30519;SDS011;17300;50.374;8.006;2023-12-20T06:00:54;4.20;;;0.90;;
30519;SDS011;17300;50.374;8.006;2023-12-20T06:03:20;2.33;;;1.10;;
30519;SDS011;17300;50.374;8.006;2023-12-20T06:05:49;3.03;;;1.30;;
30519;SDS011;17300;50.374;8.006;2023-12-20T06:08:17;3.17;;;0.97;;
30519;SDS011;17300;50.374;8.006;2023-12-20T06:10:44;2.97;;;1.33;;
30519;SDS011;17300;50.374;8.006;2023-12-20T06:13:10;2.87;;;1.37;;
30519;SDS011;17300;50.374;8.006;2023-12-20T06:15:38;3.13;;;1.20;;
30519;SDS011;17300;50.374;8.006;2023-12-20T06:18:05;2.90;;;1.13;;
30519;SDS011;17300;50.374;8.006;2023-12-20T06:20:32;3.37;;;1.20;;
30519;SDS011;17300;50.374;8.006;2023-12-20T06:23:00;3.73;;;1.20;;
30519;SDS011;17300;50.374;8.006;2023-12-20T06:25:27;1.90;;;1.20;;
30519;SDS011;17300;50.374;8.006;2023-12-20T06:27:53;2.50;;;1.27;;
30519;SDS011;17300;50.374;8.006;2023-12-20T06:30:20;2.70;;;1.30;;
30519;SDS011;17300;50.374;8.006;2023-12-20T06:32:47;1.70;;;1.27;;
30519;SDS011;17300;50.374;8.006;2023-12-20T06:35:13;1.40;;;1.07;;
30519;SDS011;17300;50.374;8.006;2023-12-20T06:37:40;1.63;;;1.00;;
30519;SDS011;17300;50.374;8.006;2023-12-20T06:40:10;2.80;;;1.33;;
30519;SDS011;17300;50.374;8.006;2023-12-20T06:42:37;2.80;;;1.60;;
30519;SDS011;17300;50.374;8.006;2023-12-20T06:45:04;2.33;;;1.30;;
30519;SDS011;17300;50.374;8.006;2023-12-20T06:47:31;2.23;;;1.30;;
30519;SDS011;17300;50.374;8.006;2023-12-20T06:49:58;1.70;;;0.90;;
30519;SDS011;17300;50.374;8.006;2023-12-20T06:52:25;1.67;;;0.90;;
30519;SDS011;17300;50.374;8.006;2023-12-20T06:54:52;2.77;;;1.00;;
30519;SDS011;17300;50.374;8.006;2023-12-20T06:57:20;2.93;;;0.97;;
30519;SDS011;17300;50.374;8.006;2023-12-20T06:59:47;1.50;;;0.70;;
30519;SDS011;17300;50.374;8.006;2023-12-20T07:02:13;2.80;;;1.00;;
30519;SDS011;17300;50.374;8.006;2023-12-20T07:04:41;1.50;;;0.73;;
30519;SDS011;17300;50.374;8.006;2023-12-20T07:07:07;1.87;;;0.90;;
30519;SDS011;17300;50.374;8.006;2023-12-20T07:09:34;1.93;;;1.10;;
30519;SDS011;17300;50.374;8.006;2023-12-20T07:12:01;3.03;;;1.27;;
30519;SDS011;17300;50.374;8.006;2023-12-20T07:14:29;2.43;;;1.33;;
30519;SDS011;17300;50.374;8.006;2023-12-20T07:16:56;3.97;;;1.10;;
30519;SDS011;17300;50.374;8.006;2023-12-20T07:19:23;1.70;;;0.90;;
30519;SDS011;17300;50.374;8.006;2023-12-20T07:21:49;2.73;;;1.40;;
30519;SDS011;17300;50.374;8.006;2023-12-20T07:24:16;3.00;;;1.10;;
30519;SDS011;17300;50.374;8.006;2023-12-20T07:26:43;3.47;;;1.07;;
30519;SDS011;17300;50.374;8.006;2023-12-20T07:29:09;1.93;;;0.83;;
30519;SDS011;17300;50.374;8.006;2023-12-20T07:31:37;2.20;;;1.00;;
30519;SDS011;17300;50.374;8.006;2023-12-20T07:34:04;2.33;;;0.90;;
30519;SDS011;17300;50.374;8.006;2023-12-20T07:36:32;2.97;;;1.00;;
30519;SDS011;17300;50.374;8.006;2023-12-20T07:38:59;2.13;;;1.10;;
30519;SDS011;17300;50.374;8.006;2023-12-20T07:41:25;1.97;;;0.97;;
30519;SDS011;17300;50.374;8.006;2023-12-20T07:43:52;1.83;;;0.90;;
30519;SDS011;17300;50.374;8.006;2023-12-20T07:46:20;2.93;;;1.20;;
30519;SDS011;17300;50.374;8.006;2023-12-20T07:48:50;2.00;;;1.00;;
30519;SDS011;17300;50.374;8.006;2023-12-20T07:51:16;2.77;;;0.97;;
30519;SDS011;17300;50.374;8.006;2023-12-20T07:53:43;2.70;;;1.10;;
30519;SDS011;17300;50.374;8.006;2023-12-20T07:56:13;2.33;;;1.00;;
30519;SDS011;17300;50.374;8.006;2023-12-20T07:58:41;1.80;;;1.00;;
30519;SDS011;17300;50.374;8.006;2023-12-20T08:01:07;2.53;;;1.13;;
30519;SDS011;17300;50.374;8.006;2023-12-20T08:03:34;2.37;;;1.13;;
30519;SDS011;17300;50.374;8.006;2023-12-20T08:06:02;2.63;;;1.10;;
30519;SDS011;17300;50.374;8.006;2023-12-20T08:08:30;2.03;;;1.00;;
30519;SDS011;17300;50.374;8.006;2023-12-20T08:10:56;1.23;;;0.83;;
30519;SDS011;17300;50.374;8.006;2023-12-20T08:13:25;2.33;;;0.80;;
30519;SDS011;17300;50.374;8.006;2023-12-20T08:15:52;3.60;;;0.80;;
30519;SDS011;17300;50.374;8.006;2023-12-20T08:18:20;1.70;;;0.83;;
30519;SDS011;17300;50.374;8.006;2023-12-20T08:20:47;3.03;;;1.00;;
30519;SDS011;17300;50.374;8.006;2023-12-20T08:23:16;2.93;;;1.00;;
30519;SDS011;17300;50.374;8.006;2023-12-20T08:25:42;2.17;;;0.87;;
30519;SDS011;17300;50.374;8.006;2023-12-20T08:28:09;2.70;;;1.10;;
30519;SDS011;17300;50.374;8.006;2023-12-20T08:30:36;2.83;;;1.33;;
30519;SDS011;17300;50.374;8.006;2023-12-20T08:33:02;2.40;;;0.90;;
30519;SDS011;17300;50.374;8.006;2023-12-20T08:35:29;2.50;;;1.10;;
30519;SDS011;17300;50.374;8.006;2023-12-20T08:37:56;4.37;;;0.90;;
30519;SDS011;17300;50.374;8.006;2023-12-20T08:40:24;2.73;;;1.00;;
30519;SDS011;17300;50.374;8.006;2023-12-20T08:42:51;2.00;;;0.87;;
30519;SDS011;17300;50.374;8.006;2023-12-20T08:45:17;1.83;;;0.97;;
30519;SDS011;17300;50.374;8.006;2023-12-20T08:47:44;4.83;;;0.73;;
30519;SDS011;17300;50.374;8.006;2023-12-20T08:50:11;1.53;;;0.97;;
30519;SDS011;17300;50.374;8.006;2023-12-20T08:52:38;1.53;;;0.93;;
30519;SDS011;17300;50.374;8.006;2023-12-20T08:55:07;2.00;;;1.00;;
30519;SDS011;17300;50.374;8.006;2023-12-20T08:57:38;4.90;;;1.20;;
30519;SDS011;17300;50.374;8.006;2023-12-20T09:00:05;1.80;;;0.90;;
30519;SDS011;17300;50.374;8.006;2023-12-20T09:02:33;3.13;;;1.13;;
30519;SDS011;17300;50.374;8.006;2023-12-20T09:05:01;2.53;;;1.00;;
30519;SDS011;17300;50.374;8.006;2023-12-20T09:07:28;3.63;;;1.17;;
30519;SDS011;17300;50.374;8.006;2023-12-20T09:09:56;1.93;;;1.10;;
30519;SDS011;17300;50.374;8.006;2023-12-20T09:12:22;3.03;;;1.00;;
30519;SDS011;17300;50.374;8.006;2023-12-20T09:14:51;2.57;;;1.03;;
30519;SDS011;17300;50.374;8.006;2023-12-20T09:17:18;3.43;;;1.30;;
30519;SDS011;17300;50.374;8.006;2023-12-20T09:19:45;2.80;;;1.23;;
30519;SDS011;17300;50.374;8.006;2023-12-20T09:22:12;2.63;;;1.00;;
30519;SDS011;17300;50.374;8.006;2023-12-20T09:27:54;2.47;;;1.10;;
30519;SDS011;17300;50.374;8.006;2023-12-20T09:30:32;2.60;;;1.00;;
30519;SDS011;17300;50.374;8.006;2023-12-20T09:33:21;2.20;;;0.90;;
30519;SDS011;17300;50.374;8.006;2023-12-20T09:37:00;2.80;;;0.93;;
30519;SDS011;17300;50.374;8.006;2023-12-20T09:39:52;2.97;;;1.00;;
30519;SDS011;17300;50.374;8.006;2023-12-20T10:11:56;3.43;;;1.20;;
30519;SDS011;17300;50.374;8.006;2023-12-20T13:42:19;2.93;;;1.50;;
30519;SDS011;17300;50.374;8.006;2023-12-20T13:44:46;2.83;;;1.30;;
30519;SDS011;17300;50.374;8.006;2023-12-20T13:50:55;3.17;;;1.33;;
30519;SDS011;17300;50.374;8.006;2023-12-20T13:53:33;2.80;;;1.23;;
30519;SDS011;17300;50.374;8.006;2023-12-20T13:56:12;3.70;;;1.50;;
30519;SDS011;17300;50.374;8.006;2023-12-20T14:01:41;3.17;;;1.50;;
30519;SDS011;17300;50.374;8.006;2023-12-20T14:04:19;2.60;;;1.50;;
30519;SDS011;17300;50.374;8.006;2023-12-20T14:07:02;3.27;;;1.70;;
30519;SDS011;17300;50.374;8.006;2023-12-20T14:09:30;3.03;;;1.60;;
30519;SDS011;17300;50.374;8.006;2023-12-20T14:12:44;2.70;;;1.30;;
30519;SDS011;17300;50.374;8.006;2023-12-20T14:15:13;2.47;;;1.40;;
30519;SDS011;17300;50.374;8.006;2023-12-20T14:17:40;1.80;;;1.23;;
30519;SDS011;17300;50.374;8.006;2023-12-20T14:20:12;1.70;;;1.13;;
30519;SDS011;17300;50.374;8.006;2023-12-20T14:22:48;3.77;;;1.60;;
30519;SDS011;17300;50.374;8.006;2023-12-20T14:25:26;1.47;;;1.27;;
30519;SDS011;17300;50.374;8.006;2023-12-20T14:27:54;3.10;;;1.20;;
30519;SDS011;17300;50.374;8.006;2023-12-20T14:33:22;2.03;;;1.23;;
30519;SDS011;17300;50.374;8.006;2023-12-20T14:35:49;2.57;;;1.30;;
30519;SDS011;17300;50.374;8.006;2023-12-20T14:38:16;2.90;;;1.30;;
30519;SDS011;17300;50.374;8.006;2023-12-20T14:40:44;5.20;;;1.50;;
30519;SDS011;17300;50.374;8.006;2023-12-20T14:43:11;1.77;;;0.97;;
30519;SDS011;17300;50.374;8.006;2023-12-20T14:45:38;1.90;;;1.00;;
30519;SDS011;17300;50.374;8.006;2023-12-20T14:48:06;2.13;;;1.00;;
30519;SDS011;17300;50.374;8.006;2023-12-20T14:50:33;1.90;;;1.00;;
30519;SDS011;17300;50.374;8.006;2023-12-20T14:53:01;2.47;;;1.20;;
30519;SDS011;17300;50.374;8.006;2023-12-20T14:55:28;2.53;;;1.30;;
30519;SDS011;17300;50.374;8.006;2023-12-20T14:57:55;1.83;;;1.20;;
30519;SDS011;17300;50.374;8.006;2023-12-20T15:00:22;1.93;;;1.10;;
30519;SDS011;17300;50.374;8.006;2023-12-20T15:02:49;1.70;;;0.97;;
30519;SDS011;17300;50.374;8.006;2023-12-20T15:08:50;1.80;;;1.10;;
30519;SDS011;17300;50.374;8.006;2023-12-20T15:11:17;2.53;;;0.90;;
30519;SDS011;17300;50.374;8.006;2023-12-20T15:13:44;1.67;;;0.80;;
30519;SDS011;17300;50.374;8.006;2023-12-20T15:16:12;1.50;;;0.97;;
30519;SDS011;17300;50.374;8.006;2023-12-20T15:18:39;1.67;;;1.00;;
30519;SDS011;17300;50.374;8.006;2023-12-20T15:21:05;2.27;;;0.90;;
30519;SDS011;17300;50.374;8.006;2023-12-20T15:23:32;3.00;;;1.00;;
30519;SDS011;17300;50.374;8.006;2023-12-20T15:26:00;3.47;;;0.90;;
30519;SDS011;17300;50.374;8.006;2023-12-20T15:28:27;2.30;;;0.93;;
30519;SDS011;17300;50.374;8.006;2023-12-20T15:30:55;2.63;;;1.17;;
30519;SDS011;17300;50.374;8.006;2023-12-20T15:33:22;3.03;;;1.50;;
30519;SDS011;17300;50.374;8.006;2023-12-20T15:35:49;1.50;;;1.10;;
30519;SDS011;17300;50.374;8.006;2023-12-20T15:38:16;2.00;;;1.20;;
30519;SDS011;17300;50.374;8.006;2023-12-20T15:40:42;1.40;;;1.07;;
30519;SDS011;17300;50.374;8.006;2023-12-20T15:43:10;3.73;;;1.10;;
30519;SDS011;17300;50.374;8.006;2023-12-20T15:45:37;1.80;;;1.07;;
30519;SDS011;17300;50.374;8.006;2023-12-20T15:48:04;1.43;;;0.90;;
30519;SDS011;17300;50.374;8.006;2023-12-20T15:50:32;2.33;;;1.00;;
30519;SDS011;17300;50.374;8.006;2023-12-20T15:52:58;1.53;;;0.87;;
30519;SDS011;17300;50.374;8.006;2023-12-20T15:55:25;2.70;;;1.57;;
30519;SDS011;17300;50.374;8.006;2023-12-20T15:57:52;1.47;;;1.20;;
30519;SDS011;17300;50.374;8.006;2023-12-20T16:00:20;1.90;;;1.23;;
30519;SDS011;17300;50.374;8.006;2023-12-20T16:02:47;1.83;;;1.20;;
30519;SDS011;17300;50.374;8.006;2023-12-20T16:05:14;2.07;;;1.17;;
30519;SDS011;17300;50.374;8.006;2023-12-20T16:07:41;2.00;;;1.47;;
30519;SDS011;17300;50.374;8.006;2023-12-20T16:10:08;1.40;;;1.00;;
30519;SDS011;17300;50.374;8.006;2023-12-20T16:12:35;2.27;;;1.43;;
30519;SDS011;17300;50.374;8.006;2023-12-20T16:15:02;2.17;;;1.20;;
30519;SDS011;17300;50.374;8.006;2023-12-20T16:17:30;3.17;;;1.33;;
30519;SDS011;17300;50.374;8.006;2023-12-20T16:30:03;2.67;;;1.30;;
30519;SDS011;17300;50.374;8.006;2023-12-20T16:32:33;3.63;;;2.03;;
30519;SDS011;17300;50.374;8.006;2023-12-20T16:35:00;3.00;;;2.10;;
30519;SDS011;17300;50.374;8.006;2023-12-20T16:37:27;2.43;;;1.60;;
30519;SDS011;17300;50.374;8.006;2023-12-20T16:39:53;4.33;;;2.90;;
30519;SDS011;17300;50.374;8.006;2023-12-20T16:42:20;4.40;;;2.83;;
30519;SDS011;17300;50.374;8.006;2023-12-20T16:44:47;4.60;;;2.67;;
30519;SDS011;17300;50.374;8.006;2023-12-20T16:47:13;3.07;;;1.83;;
30519;SDS011;17300;50.374;8.006;2023-12-20T16:49:41;2.77;;;1.27;;
30519;SDS011;17300;50.374;8.006;2023-12-20T16:52:08;2.10;;;1.20;;
30519;SDS011;17300;50.374;8.006;2023-12-20T16:54:35;2.07;;;1.00;;
30519;SDS011;17300;50.374;8.006;2023-12-20T16:57:01;3.03;;;1.00;;
30519;SDS011;17300;50.374;8.006;2023-12-20T16:59:28;2.33;;;0.90;;
30519;SDS011;17300;50.374;8.006;2023-12-20T17:01:55;2.67;;;1.20;;
30519;SDS011;17300;50.374;8.006;2023-12-20T17:04:22;1.23;;;1.00;;
30519;SDS011;17300;50.374;8.006;2023-12-20T17:06:50;1.57;;;0.80;;
30519;SDS011;17300;50.374;8.006;2023-12-20T17:09:16;1.20;;;1.10;;
30519;SDS011;17300;50.374;8.006;2023-12-20T17:11:43;2.30;;;1.17;;
30519;SDS011;17300;50.374;8.006;2023-12-20T17:14:10;1.70;;;1.23;;
30519;SDS011;17300;50.374;8.006;2023-12-20T17:16:38;3.23;;;1.30;;
30519;SDS011;17300;50.374;8.006;2023-12-20T17:19:04;2.00;;;1.20;;
30519;SDS011;17300;50.374;8.006;2023-12-20T17:21:31;2.70;;;1.10;;
30519;SDS011;17300;50.374;8.006;2023-12-20T17:23:59;1.97;;;1.10;;
30519;SDS011;17300;50.374;8.006;2023-12-20T17:29:09;1.23;;;1.00;;
30519;SDS011;17300;50.374;8.006;2023-12-20T17:31:35;2.33;;;1.03;;
30519;SDS011;17300;50.374;8.006;2023-12-20T17:34:02;1.63;;;1.00;;
30519;SDS011;17300;50.374;8.006;2023-12-20T17:36:32;2.07;;;1.20;;
30519;SDS011;17300;50.374;8.006;2023-12-20T17:39:00;2.63;;;1.07;;
30519;SDS011;17300;50.374;8.006;2023-12-20T17:41:27;2.17;;;1.10;;
30519;SDS011;17300;50.374;8.006;2023-12-20T17:43:53;1.43;;;0.90;;
30519;SDS011;17300;50.374;8.006;2023-12-20T17:46:20;1.70;;;1.43;;
30519;SDS011;17300;50.374;8.006;2023-12-20T17:48:46;2.73;;;1.10;;
30519;SDS011;17300;50.374;8.006;2023-12-20T17:51:13;2.80;;;1.30;;
30519;SDS011;17300;50.374;8.006;2023-12-20T17:53:40;1.40;;;0.90;;
30519;SDS011;17300;50.374;8.006;2023-12-20T17:56:08;1.90;;;1.00;;
30519;SDS011;17300;50.374;8.006;2023-12-20T17:58:48;2.10;;;0.90;;
30519;SDS011;17300;50.374;8.006;2023-12-20T18:01:17;1.80;;;1.10;;
30519;SDS011;17300;50.374;8.006;2023-12-20T18:03:44;2.87;;;1.20;;
30519;SDS011;17300;50.374;8.006;2023-12-20T18:06:11;1.53;;;1.20;;
30519;SDS011;17300;50.374;8.006;2023-12-20T18:08:38;2.37;;;1.10;;
30519;SDS011;17300;50.374;8.006;2023-12-20T18:11:04;1.30;;;1.10;;
30519;SDS011;17300;50.374;8.006;2023-12-20T18:13:32;1.33;;;1.13;;
30519;SDS011;17300;50.374;8.006;2023-12-20T18:15:59;3.03;;;0.90;;
30519;SDS011;17300;50.374;8.006;2023-12-20T18:18:26;0.90;;;0.70;;
30519;SDS011;17300;50.374;8.006;2023-12-20T18:20:52;2.20;;;0.93;;
30519;SDS011;17300;50.374;8.006;2023-12-20T18:23:19;1.43;;;0.80;;
30519;SDS011;17300;50.374;8.006;2023-12-20T18:25:46;1.87;;;0.90;;
30519;SDS011;17300;50.374;8.006;2023-12-20T18:28:13;1.03;;;0.80;;
30519;SDS011;17300;50.374;8.006;2023-12-20T18:30:41;1.70;;;1.00;;
30519;SDS011;17300;50.374;8.006;2023-12-20T18:33:08;0.90;;;0.90;;
30519;SDS011;17300;50.374;8.006;2023-12-20T18:35:35;1.43;;;0.87;;
30519;SDS011;17300;50.374;8.006;2023-12-20T18:38:02;0.93;;;0.60;;
30519;SDS011;17300;50.374;8.006;2023-12-20T18:40:29;1.33;;;0.97;;
30519;SDS011;17300;50.374;8.006;2023-12-20T18:42:56;1.50;;;1.40;;
30519;SDS011;17300;50.374;8.006;2023-12-20T18:45:23;1.27;;;1.10;;
30519;SDS011;17300;50.374;8.006;2023-12-20T18:47:51;1.93;;;1.00;;
30519;SDS011;17300;50.374;8.006;2023-12-20T18:50:19;1.67;;;1.10;;
30519;SDS011;17300;50.374;8.006;2023-12-20T18:52:45;1.80;;;0.90;;
30519;SDS011;17300;50.374;8.006;2023-12-20T18:55:12;1.50;;;1.30;;
30519;SDS011;17300;50.374;8.006;2023-12-20T18:57:39;1.47;;;1.10;;
30519;SDS011;17300;50.374;8.006;2023-12-20T19:00:06;1.23;;;1.13;;
30519;SDS011;17300;50.374;8.006;2023-12-20T19:02:34;1.30;;;1.20;;
30519;SDS011;17300;50.374;8.006;2023-12-20T19:05:04;1.87;;;1.10;;
30519;SDS011;17300;50.374;8.006;2023-12-20T19:07:36;1.27;;;0.90;;
30519;SDS011;17300;50.374;8.006;2023-12-20T19:10:04;2.03;;;1.20;;
30519;SDS011;17300;50.374;8.006;2023-12-20T19:12:31;1.80;;;1.10;;
30519;SDS011;17300;50.374;8.006;2023-12-20T19:14:58;2.43;;;1.50;;
30519;SDS011;17300;50.374;8.006;2023-12-20T19:17:24;1.20;;;1.00;;